createdAt,value
2023-03-12T00:03:29.466Z,-3.10
2023-03-12T00:07:31.421Z,-3.10
2023-03-12T00:11:40.218Z,-3.10
2023-03-12T00:15:43.313Z,-3.00
2023-03-12T00:19:52.983Z,-3.10
2023-03-12T00:23:56.404Z,-3.10
2023-03-12T00:28:02.133Z,-3.10
2023-03-12T00:32:03.056Z,-3.20
2023-03-12T00:36:04.628Z,-3.20
2023-03-12T00:40:08.704Z,-3.30
2023-03-12T00:44:19.381Z,-3.20
2023-03-12T00:48:23.268Z,-3.10
2023-03-12T00:52:27.505Z,-3.00
2023-03-12T00:56:28.974Z,-3.00
2023-03-12T01:00:41.231Z,-3.10
2023-03-12T01:04:44.511Z,-3.10
2023-03-12T01:08:55.076Z,-3.10
2023-03-12T01:12:56.632Z,-3.00
2023-03-12T01:17:01.175Z,-3.00
2023-03-12T01:21:02.517Z,-2.90
2023-03-12T01:25:03.898Z,-2.90
2023-03-12T01:29:05.443Z,-2.90
2023-03-12T01:33:09.474Z,-2.80
2023-03-12T01:37:11.553Z,-2.80
2023-03-12T01:41:12.795Z,-2.80
2023-03-12T01:45:59.452Z,-2.80
2023-03-12T01:50:12.344Z,-2.70
2023-03-12T01:54:34.448Z,-2.70
2023-03-12T01:58:43.737Z,-2.70
2023-03-12T02:02:59.967Z,-2.60
2023-03-12T02:07:16.055Z,-2.60
2023-03-12T02:11:18.138Z,-2.50
2023-03-12T02:15:19.603Z,-2.50
2023-03-12T02:19:31.214Z,-2.50
2023-03-12T02:23:42.107Z,-2.60
2023-03-12T02:27:46.936Z,-2.60
2023-03-12T02:31:55.359Z,-2.70
2023-03-12T02:35:56.767Z,-2.80
2023-03-12T02:40:09.874Z,-2.90
2023-03-12T02:44:19.410Z,-3.10
2023-03-12T02:48:22.136Z,-3.20
2023-03-12T02:52:22.444Z,-3.40
2023-03-12T02:56:25.419Z,-3.40
2023-03-12T03:00:32.223Z,-3.50
2023-03-12T03:04:35.228Z,-3.60
2023-03-12T03:08:35.551Z,-3.70
2023-03-12T03:12:37.533Z,-3.70
2023-03-12T03:16:41.511Z,-3.70
2023-03-12T03:20:43.606Z,-3.70
2023-03-12T03:24:43.696Z,-3.70
2023-03-12T03:32:46.196Z,-3.50
2023-03-12T03:36:47.056Z,-3.50
2023-03-12T03:40:49.855Z,-3.40
2023-03-12T03:44:50.098Z,-3.30
2023-03-12T03:48:53.378Z,-3.20
2023-03-12T03:52:55.202Z,-3.20
2023-03-12T03:56:57.084Z,-3.10
2023-03-12T04:00:57.694Z,-3.00
2023-03-12T04:05:03.886Z,-3.00
2023-03-12T04:09:05.232Z,-2.90
2023-03-12T04:13:07.472Z,-2.90
2023-03-12T04:17:08.134Z,-2.90
2023-03-12T04:21:14.253Z,-2.80
2023-03-12T04:25:15.190Z,-2.80
2023-03-12T04:29:15.417Z,-2.70
2023-03-12T04:33:15.959Z,-2.70
2023-03-12T04:37:18.730Z,-2.60
2023-03-12T04:41:20.403Z,-2.60
2023-03-12T04:45:25.271Z,-2.60
2023-03-12T04:49:25.498Z,-2.50
2023-03-12T04:53:30.224Z,-2.50
2023-03-12T04:57:31.122Z,-2.50
2023-03-12T05:01:34.430Z,-2.50
2023-03-12T05:05:38.931Z,-2.50
2023-03-12T05:09:41.825Z,-2.50
2023-03-12T05:13:41.966Z,-2.50
2023-03-12T05:17:42.159Z,-2.50
2023-03-12T05:21:44.285Z,-2.50
2023-03-12T05:25:47.062Z,-2.50
2023-03-12T05:29:47.241Z,-2.50
2023-03-12T05:33:51.573Z,-2.60
2023-03-12T05:37:53.168Z,-2.60
2023-03-12T05:41:57.239Z,-2.60
2023-03-12T05:46:04.017Z,-2.50
2023-03-12T05:50:05.497Z,-2.50
2023-03-12T05:54:06.424Z,-2.60
2023-03-12T05:58:10.949Z,-2.60
2023-03-12T06:02:11.991Z,-2.60
2023-03-12T06:06:13.029Z,-2.70
2023-03-12T06:10:15.318Z,-2.70
2023-03-12T06:14:20.333Z,-2.70
2023-03-12T06:18:21.751Z,-2.70
2023-03-12T06:22:22.315Z,-2.60
2023-03-12T06:26:25.279Z,-2.40
2023-03-12T06:30:28.798Z,-2.30
2023-03-12T06:34:29.626Z,-2.00
2023-03-12T06:38:30.249Z,-1.80
2023-03-12T06:42:30.305Z,-1.60
2023-03-12T06:46:33.170Z,-1.40
2023-03-12T06:50:33.388Z,-1.30
2023-03-12T06:54:33.442Z,-1.00
2023-03-12T06:58:34.063Z,-0.90
2023-03-12T07:02:37.243Z,-0.70
2023-03-12T07:06:40.159Z,-0.60
2023-03-12T07:10:40.230Z,-0.30
2023-03-12T07:14:40.404Z,-0.30
2023-03-12T07:18:43.190Z,-0.10
2023-03-12T07:22:43.577Z,0.00
2023-03-12T07:26:43.824Z,0.00
2023-03-12T07:30:50.319Z,0.20
2023-03-12T07:34:52.990Z,0.30
2023-03-12T07:38:53.101Z,0.50
2023-03-12T07:42:54.214Z,0.50
2023-03-12T07:46:54.314Z,0.60
2023-03-12T07:50:57.161Z,1.00
2023-03-12T07:54:58.818Z,1.10
2023-03-12T07:58:59.722Z,1.60
2023-03-12T08:03:00.779Z,2.20
2023-03-12T08:07:07.296Z,2.70
2023-03-12T08:11:09.359Z,2.90
2023-03-12T08:15:12.728Z,3.00
2023-03-12T08:19:12.805Z,2.90
2023-03-12T08:23:16.460Z,3.00
2023-03-12T08:27:21.109Z,3.30
2023-03-12T08:31:22.982Z,3.50
2023-03-12T08:35:24.564Z,3.60
2023-03-12T08:39:31.128Z,3.80
2023-03-12T08:43:33.185Z,4.00
2023-03-12T08:47:35.688Z,3.70
2023-03-12T08:51:36.853Z,3.60
2023-03-12T08:55:41.065Z,3.40
2023-03-12T08:59:42.952Z,3.30
2023-03-12T09:03:51.157Z,3.40
2023-03-12T09:07:52.223Z,3.80
2023-03-12T09:11:55.024Z,4.00
2023-03-12T09:15:55.137Z,4.10
2023-03-12T09:19:55.281Z,4.20
2023-03-12T09:23:55.309Z,4.50
2023-03-12T09:27:57.917Z,4.80
2023-03-12T09:31:58.080Z,5.20
2023-03-12T09:36:05.236Z,5.60
2023-03-12T09:40:08.110Z,6.00
2023-03-12T09:44:19.734Z,6.30
2023-03-12T09:48:28.908Z,6.60
2023-03-12T09:52:35.210Z,6.50
2023-03-12T09:56:37.647Z,6.80
2023-03-12T10:00:40.497Z,7.30
2023-03-12T10:04:59.007Z,7.70
2023-03-12T10:09:19.890Z,8.30
2023-03-12T10:13:45.509Z,8.40
2023-03-12T10:18:02.206Z,8.00
2023-03-12T10:22:18.356Z,7.20
2023-03-12T10:26:26.762Z,6.60
2023-03-12T10:30:36.714Z,6.30
2023-03-12T10:34:53.097Z,6.20
2023-03-12T10:38:54.901Z,6.50
2023-03-12T10:42:57.512Z,6.60
2023-03-12T10:47:11.458Z,6.70
2023-03-12T10:51:17.572Z,6.50
2023-03-12T10:55:33.024Z,6.60
2023-03-12T10:59:43.883Z,6.90
2023-03-12T11:03:56.382Z,7.30
2023-03-12T11:08:02.975Z,8.00
2023-03-12T11:12:03.150Z,7.60
2023-03-12T11:16:05.544Z,7.50
2023-03-12T11:20:28.656Z,7.00
2023-03-12T11:24:32.101Z,6.50
2023-03-12T11:28:41.022Z,6.30
2023-03-12T11:32:48.058Z,5.90
2023-03-12T11:37:02.667Z,5.70
2023-03-12T11:41:27.593Z,5.70
2023-03-12T11:45:43.487Z,5.50
2023-03-12T11:50:11.327Z,5.20
2023-03-12T11:54:50.996Z,5.00
2023-03-12T11:59:12.879Z,5.00
2023-03-12T12:03:48.244Z,5.10
2023-03-12T12:08:07.794Z,5.30
2023-03-12T12:12:41.139Z,5.30
2023-03-12T12:17:07.527Z,5.30
2023-03-12T12:21:30.843Z,5.10
2023-03-12T12:25:55.357Z,4.80
2023-03-12T12:30:20.574Z,4.70
2023-03-12T12:34:59.200Z,4.70
2023-03-12T12:39:11.465Z,4.60
2023-03-12T12:43:28.739Z,4.30
2023-03-12T12:47:43.852Z,4.30
2023-03-12T12:51:53.924Z,4.40
2023-03-12T12:56:15.960Z,4.50
2023-03-12T13:00:50.927Z,4.70
2023-03-12T13:04:52.888Z,4.80
2023-03-12T13:09:18.686Z,4.80
2023-03-12T13:13:27.401Z,4.70
2023-03-12T13:17:36.741Z,4.60
2023-03-12T13:21:44.543Z,4.60
2023-03-12T13:26:04.452Z,4.60
2023-03-12T13:30:57.344Z,4.50
2023-03-12T13:35:00.822Z,4.50
2023-03-12T13:39:21.251Z,4.50
2023-03-12T13:43:51.441Z,4.50
2023-03-12T13:48:06.589Z,4.50
2023-03-12T13:52:26.892Z,4.60
2023-03-12T13:56:32.341Z,4.70
2023-03-12T14:00:44.222Z,4.80
2023-03-12T14:04:45.510Z,4.80
2023-03-12T14:09:24.538Z,4.80
2023-03-12T14:13:53.738Z,4.70
2023-03-12T14:18:04.222Z,4.70
2023-03-12T14:22:09.458Z,4.70
2023-03-12T14:26:11.281Z,4.70
2023-03-12T14:30:23.611Z,4.70
2023-03-12T14:34:30.308Z,4.70
2023-03-12T14:38:38.328Z,4.80
2023-03-12T14:42:39.545Z,4.90
2023-03-12T14:46:40.793Z,4.90
2023-03-12T14:50:44.787Z,5.00
2023-03-12T14:54:58.113Z,5.10
2023-03-12T14:58:58.405Z,5.00
2023-03-12T15:03:02.982Z,5.00
2023-03-12T15:07:09.636Z,4.90
2023-03-12T15:11:09.677Z,4.90
2023-03-12T15:15:14.724Z,4.90
2023-03-12T15:19:16.963Z,5.00
2023-03-12T15:23:22.155Z,5.00
2023-03-12T15:27:32.890Z,5.20
2023-03-12T15:31:46.008Z,5.20
2023-03-12T15:36:03.504Z,5.10
2023-03-12T15:40:19.981Z,5.10
2023-03-12T15:44:24.929Z,5.20
2023-03-12T15:48:33.703Z,5.30
2023-03-12T15:52:37.040Z,5.40
2023-03-12T15:56:40.154Z,5.40
2023-03-12T16:00:48.556Z,5.50
2023-03-12T16:04:48.672Z,5.50
2023-03-12T16:08:52.876Z,5.60
2023-03-12T16:13:04.927Z,5.60
2023-03-12T16:17:05.126Z,5.70
2023-03-12T16:21:05.302Z,5.80
2023-03-12T16:25:05.381Z,5.80
2023-03-12T16:29:08.291Z,5.90
2023-03-12T16:33:10.159Z,6.00
2023-03-12T16:37:13.814Z,6.00
2023-03-12T16:41:18.050Z,6.10
2023-03-12T16:45:23.623Z,6.10
2023-03-12T16:49:27.867Z,6.10
2023-03-12T16:53:29.707Z,6.10
2023-03-12T16:57:38.156Z,6.20
2023-03-12T17:01:41.994Z,6.20
2023-03-12T17:05:42.092Z,6.20
2023-03-12T17:09:42.342Z,6.20
2023-03-12T17:13:42.864Z,6.20
2023-03-12T17:17:45.745Z,6.20
2023-03-12T17:21:47.173Z,6.20
2023-03-12T17:25:59.812Z,6.20
2023-03-12T17:30:17.541Z,6.20
2023-03-12T17:34:27.617Z,6.20
2023-03-12T17:38:37.324Z,6.20
2023-03-12T17:42:46.966Z,6.10
2023-03-12T17:47:03.287Z,6.00
2023-03-12T17:51:16.323Z,6.10
2023-03-12T17:59:40.688Z,5.90
2023-03-12T18:03:44.402Z,5.80
2023-03-12T18:08:00.147Z,5.90
2023-03-12T18:12:06.914Z,5.90
2023-03-12T18:16:20.141Z,5.90
2023-03-12T18:20:35.863Z,5.90
2023-03-12T18:24:40.672Z,5.90
2023-03-12T18:28:40.808Z,5.90
2023-03-12T18:32:41.614Z,5.90
2023-03-12T18:36:41.689Z,5.90
2023-03-12T18:40:44.563Z,5.90
2023-03-12T18:44:44.682Z,5.90
2023-03-12T18:48:44.812Z,5.90
2023-03-12T18:52:44.889Z,5.80
2023-03-12T18:56:48.720Z,5.80
2023-03-12T19:00:50.087Z,5.90
2023-03-12T19:04:54.131Z,5.80
2023-03-12T19:09:07.811Z,5.80
2023-03-12T19:13:18.224Z,5.80
2023-03-12T19:17:24.081Z,5.80
2023-03-12T19:21:25.949Z,5.80
2023-03-12T19:25:28.538Z,5.80
2023-03-12T19:29:38.249Z,5.90
2023-03-12T19:33:42.626Z,5.90
2023-03-12T19:37:55.032Z,5.90
2023-03-12T19:41:59.572Z,6.10
2023-03-12T19:46:10.420Z,6.10
2023-03-12T19:50:28.711Z,6.20
2023-03-12T19:55:01.531Z,6.30
2023-03-12T19:59:21.877Z,6.50
2023-03-12T20:03:33.238Z,6.70
2023-03-12T20:07:35.189Z,7.00
2023-03-12T20:11:51.086Z,7.10
2023-03-12T20:15:53.380Z,7.10
2023-03-12T20:20:02.004Z,7.20
2023-03-12T20:24:12.113Z,7.30
2023-03-12T20:28:17.681Z,7.30
2023-03-12T20:32:22.289Z,7.30
2023-03-12T20:36:26.681Z,7.40
2023-03-12T20:40:28.429Z,7.40
2023-03-12T20:44:43.441Z,7.60
2023-03-12T20:48:56.637Z,7.60
2023-03-12T20:53:17.678Z,7.60
2023-03-12T20:57:28.276Z,7.50
2023-03-12T21:01:35.886Z,7.50
2023-03-12T21:05:37.551Z,7.50
2023-03-12T21:09:47.809Z,7.60
2023-03-12T21:14:01.356Z,7.70
2023-03-12T21:18:15.325Z,7.60
2023-03-12T21:22:24.554Z,7.70
2023-03-12T21:26:40.751Z,7.70
2023-03-12T21:30:44.407Z,7.70
2023-03-12T21:34:49.937Z,7.70
2023-03-12T21:38:57.907Z,7.70
2023-03-12T21:43:00.707Z,7.70
2023-03-12T21:47:01.291Z,7.80
2023-03-12T21:51:05.689Z,7.80
2023-03-12T21:55:05.822Z,7.80
2023-03-12T21:59:08.554Z,7.80
2023-03-12T22:03:08.835Z,7.90
2023-03-12T22:07:09.321Z,7.90
2023-03-12T22:11:12.312Z,8.00
2023-03-12T22:15:15.907Z,8.00
2023-03-12T22:19:16.008Z,7.90
2023-03-12T22:23:16.344Z,7.90
2023-03-12T22:27:16.707Z,7.80
2023-03-12T22:31:20.381Z,7.70
2023-03-12T22:35:25.792Z,7.50
2023-03-12T22:39:25.965Z,7.40
2023-03-12T22:43:28.108Z,7.30
2023-03-12T22:47:30.755Z,7.10
2023-03-12T22:51:33.558Z,7.00
2023-03-12T22:55:33.997Z,7.00
2023-03-12T22:59:34.052Z,6.90
2023-03-12T23:03:39.057Z,6.90
2023-03-12T23:07:39.590Z,6.90
2023-03-12T23:11:41.333Z,6.80
2023-03-12T23:15:42.007Z,6.80
2023-03-12T23:19:45.490Z,6.70
2023-03-12T23:23:46.522Z,6.70
2023-03-12T23:27:46.892Z,6.60
2023-03-12T23:31:47.071Z,6.60
2023-03-12T23:35:57.561Z,6.50
2023-03-12T23:39:57.816Z,6.50
2023-03-12T23:43:59.074Z,6.50
2023-03-12T23:47:59.167Z,6.40
2023-03-12T23:52:01.864Z,6.40
2023-03-12T23:56:04.050Z,6.30
